sensor_id;sensor_type;location;lat;lon;timestamp;noise_LAeq;noise_LA_min;noise_LA_max;noise_LA01;noise_LA95
77134;Laerm;25175;50.140;18.990;2023-01-15T00:01:22;46.86;35.78;70.04;;
77134;Laerm;25175;50.140;18.990;2023-01-15T00:04:27;39.77;35.14;60.23;;
77134;Laerm;25175;50.140;18.990;2023-01-15T00:07:32;38.54;34.86;56.72;;
77134;Laerm;25175;50.140;18.990;2023-01-15T00:10:39;40.86;34.71;57.27;;
77134;Laerm;25175;50.140;18.990;2023-01-15T00:13:47;41.15;35.46;61.56;;
77134;Laerm;25175;50.140;18.990;2023-01-15T00:16:52;44.33;34.27;65.77;;
77134;Laerm;25175;50.140;18.990;2023-01-15T00:19:56;39.76;35.23;55.85;;
77134;Laerm;25175;50.140;18.990;2023-01-15T00:23:02;40.73;35.35;61.01;;
77134;Laerm;25175;50.140;18.990;2023-01-15T00:26:13;40.79;34.57;60.45;;
77134;Laerm;25175;50.140;18.990;2023-01-15T00:29:31;42.67;35.86;66.75;;
77134;Laerm;25175;50.140;18.990;2023-01-15T00:32:37;47.42;36.28;70.95;;
77134;Laerm;25175;50.140;18.990;2023-01-15T00:35:42;48.21;36.83;67.77;;
77134;Laerm;25175;50.140;18.990;2023-01-15T00:38:46;49.44;36.05;73.48;;
77134;Laerm;25175;50.140;18.990;2023-01-15T00:41:55;48.20;37.06;74.43;;
77134;Laerm;25175;50.140;18.990;2023-01-15T00:45:00;47.99;37.12;68.66;;
77134;Laerm;25175;50.140;18.990;2023-01-15T00:48:10;45.07;37.04;67.22;;
77134;Laerm;25175;50.140;18.990;2023-01-15T00:51:15;49.68;36.20;70.40;;
77134;Laerm;25175;50.140;18.990;2023-01-15T00:54:20;50.07;35.79;74.28;;
77134;Laerm;25175;50.140;18.990;2023-01-15T00:57:27;41.58;35.81;63.70;;
77134;Laerm;25175;50.140;18.990;2023-01-15T01:00:32;42.69;34.55;66.14;;
77134;Laerm;25175;50.140;18.990;2023-01-15T01:03:37;41.20;35.18;61.79;;
77134;Laerm;25175;50.140;18.990;2023-01-15T01:06:42;42.13;34.72;66.01;;
77134;Laerm;25175;50.140;18.990;2023-01-15T01:09:48;41.70;34.69;61.13;;
77134;Laerm;25175;50.140;18.990;2023-01-15T01:12:57;41.13;34.96;63.26;;
77134;Laerm;25175;50.140;18.990;2023-01-15T01:16:02;40.32;35.00;60.80;;
77134;Laerm;25175;50.140;18.990;2023-01-15T01:19:10;40.78;34.90;60.67;;
77134;Laerm;25175;50.140;18.990;2023-01-15T01:22:15;40.29;34.73;61.39;;
77134;Laerm;25175;50.140;18.990;2023-01-15T01:25:20;39.47;34.84;58.03;;
77134;Laerm;25175;50.140;18.990;2023-01-15T01:28:27;45.37;34.75;71.69;;
77134;Laerm;25175;50.140;18.990;2023-01-15T01:31:32;48.39;34.92;72.36;;
77134;Laerm;25175;50.140;18.990;2023-01-15T01:34:36;45.52;35.03;67.94;;
77134;Laerm;25175;50.140;18.990;2023-01-15T01:37:42;39.29;34.57;59.63;;
77134;Laerm;25175;50.140;18.990;2023-01-15T01:40:46;42.32;34.35;70.26;;
77134;Laerm;25175;50.140;18.990;2023-01-15T01:43:57;40.49;33.80;54.57;;
77134;Laerm;25175;50.140;18.990;2023-01-15T01:47:08;41.14;34.48;66.47;;
77134;Laerm;25175;50.140;18.990;2023-01-15T01:50:16;40.62;34.20;63.43;;
77134;Laerm;25175;50.140;18.990;2023-01-15T01:53:28;40.45;34.40;66.56;;
77134;Laerm;25175;50.140;18.990;2023-01-15T01:56:35;37.14;34.16;48.82;;
77134;Laerm;25175;50.140;18.990;2023-01-15T01:59:43;47.22;34.55;70.88;;
77134;Laerm;25175;50.140;18.990;2023-01-15T02:02:52;42.56;34.93;62.02;;
77134;Laerm;25175;50.140;18.990;2023-01-15T02:06:02;38.79;34.66;54.49;;
77134;Laerm;25175;50.140;18.990;2023-01-15T02:09:11;43.16;34.97;65.08;;
77134;Laerm;25175;50.140;18.990;2023-01-15T02:12:25;41.24;34.54;65.77;;
77134;Laerm;25175;50.140;18.990;2023-01-15T02:15:42;41.03;34.88;64.19;;
77134;Laerm;25175;50.140;18.990;2023-01-15T02:18:58;41.15;34.73;64.82;;
77134;Laerm;25175;50.140;18.990;2023-01-15T02:22:19;47.21;35.10;73.43;;
77134;Laerm;25175;50.140;18.990;2023-01-15T02:25:53;46.85;34.52;70.13;;
77134;Laerm;25175;50.140;18.990;2023-01-15T02:29:14;45.50;34.24;72.34;;
77134;Laerm;25175;50.140;18.990;2023-01-15T02:32:31;50.66;36.39;73.26;;
77134;Laerm;25175;50.140;18.990;2023-01-15T02:35:47;44.35;35.86;63.08;;
77134;Laerm;25175;50.140;18.990;2023-01-15T02:39:00;53.58;35.14;74.28;;
77134;Laerm;25175;50.140;18.990;2023-01-15T02:42:10;49.86;36.28;76.27;;
77134;Laerm;25175;50.140;18.990;2023-01-15T02:45:29;46.73;34.82;79.24;;
77134;Laerm;25175;50.140;18.990;2023-01-15T02:48:49;53.92;35.64;77.34;;
77134;Laerm;25175;50.140;18.990;2023-01-15T02:52:02;47.83;35.91;74.43;;
77134;Laerm;25175;50.140;18.990;2023-01-15T02:55:16;46.97;35.16;69.59;;
77134;Laerm;25175;50.140;18.990;2023-01-15T02:58:30;43.86;35.84;64.73;;
77134;Laerm;25175;50.140;18.990;2023-01-15T03:01:49;44.25;35.79;68.60;;
77134;Laerm;25175;50.140;18.990;2023-01-15T03:05:07;44.52;35.60;64.31;;
77134;Laerm;25175;50.140;18.990;2023-01-15T03:08:14;46.10;35.85;68.30;;
77134;Laerm;25175;50.140;18.990;2023-01-15T03:11:19;41.37;35.32;59.45;;
77134;Laerm;25175;50.140;18.990;2023-01-15T03:14:43;46.85;35.62;75.54;;
77134;Laerm;25175;50.140;18.990;2023-01-15T03:17:55;51.64;37.32;73.73;;
77134;Laerm;25175;50.140;18.990;2023-01-15T03:21:05;49.07;37.62;71.68;;
77134;Laerm;25175;50.140;18.990;2023-01-15T03:24:18;51.50;37.54;76.31;;
77134;Laerm;25175;50.140;18.990;2023-01-15T03:27:27;50.60;37.07;80.28;;
77134;Laerm;25175;50.140;18.990;2023-01-15T03:30:33;47.87;36.64;71.52;;
77134;Laerm;25175;50.140;18.990;2023-01-15T03:33:42;54.20;38.65;78.28;;
77134;Laerm;25175;50.140;18.990;2023-01-15T03:36:52;47.73;37.24;68.92;;
77134;Laerm;25175;50.140;18.990;2023-01-15T03:40:00;51.95;38.09;73.81;;
77134;Laerm;25175;50.140;18.990;2023-01-15T03:43:15;56.22;36.54;80.50;;
77134;Laerm;25175;50.140;18.990;2023-01-15T03:47:02;49.01;37.37;72.22;;
77134;Laerm;25175;50.140;18.990;2023-01-15T03:50:22;49.30;36.99;70.55;;
77134;Laerm;25175;50.140;18.990;2023-01-15T03:53:39;55.43;39.18;76.39;;
77134;Laerm;25175;50.140;18.990;2023-01-15T03:56:55;48.16;36.02;70.85;;
77134;Laerm;25175;50.140;18.990;2023-01-15T04:00:12;49.22;37.23;71.36;;
77134;Laerm;25175;50.140;18.990;2023-01-15T04:03:25;45.72;35.56;67.25;;
77134;Laerm;25175;50.140;18.990;2023-01-15T04:06:39;44.14;35.80;65.27;;
77134;Laerm;25175;50.140;18.990;2023-01-15T04:09:45;44.07;36.02;65.12;;
77134;Laerm;25175;50.140;18.990;2023-01-15T04:12:52;46.44;36.08;66.49;;
77134;Laerm;25175;50.140;18.990;2023-01-15T04:15:57;49.95;37.02;72.72;;
77134;Laerm;25175;50.140;18.990;2023-01-15T04:19:03;50.40;35.66;72.73;;
77134;Laerm;25175;50.140;18.990;2023-01-15T04:22:12;53.20;37.50;77.31;;
77134;Laerm;25175;50.140;18.990;2023-01-15T04:25:17;48.13;36.69;69.91;;
77134;Laerm;25175;50.140;18.990;2023-01-15T04:28:24;47.93;36.46;73.21;;
77134;Laerm;25175;50.140;18.990;2023-01-15T04:31:29;40.02;35.44;59.20;;
77134;Laerm;25175;50.140;18.990;2023-01-15T04:34:36;46.28;35.96;69.14;;
77134;Laerm;25175;50.140;18.990;2023-01-15T04:37:44;45.21;36.52;68.71;;
77134;Laerm;25175;50.140;18.990;2023-01-15T04:40:48;43.02;35.25;65.92;;
77134;Laerm;25175;50.140;18.990;2023-01-15T04:44:06;46.00;35.44;72.41;;
77134;Laerm;25175;50.140;18.990;2023-01-15T04:47:10;41.29;35.39;64.24;;
77134;Laerm;25175;50.140;18.990;2023-01-15T04:50:15;43.64;35.95;65.68;;
77134;Laerm;25175;50.140;18.990;2023-01-15T04:53:24;42.06;35.38;66.61;;
77134;Laerm;25175;50.140;18.990;2023-01-15T04:56:30;41.65;35.61;63.91;;
77134;Laerm;25175;50.140;18.990;2023-01-15T04:59:35;39.13;34.04;57.93;;
77134;Laerm;25175;50.140;18.990;2023-01-15T05:02:40;45.15;36.81;66.11;;
77134;Laerm;25175;50.140;18.990;2023-01-15T05:05:44;42.16;35.32;63.42;;
77134;Laerm;25175;50.140;18.990;2023-01-15T05:08:52;43.40;35.79;63.30;;
77134;Laerm;25175;50.140;18.990;2023-01-15T05:11:56;42.94;36.01;66.68;;
77134;Laerm;25175;50.140;18.990;2023-01-15T05:15:02;40.90;35.09;56.59;;
77134;Laerm;25175;50.140;18.990;2023-01-15T05:18:06;39.61;34.93;58.37;;
77134;Laerm;25175;50.140;18.990;2023-01-15T05:21:21;40.82;34.92;59.95;;
77134;Laerm;25175;50.140;18.990;2023-01-15T05:24:28;40.77;34.66;64.25;;
77134;Laerm;25175;50.140;18.990;2023-01-15T05:27:33;43.15;34.91;67.31;;
77134;Laerm;25175;50.140;18.990;2023-01-15T05:30:38;43.35;35.59;64.17;;
77134;Laerm;25175;50.140;18.990;2023-01-15T05:33:44;42.86;36.04;55.10;;
77134;Laerm;25175;50.140;18.990;2023-01-15T05:36:49;39.59;35.75;54.76;;
77134;Laerm;25175;50.140;18.990;2023-01-15T05:39:56;44.32;35.85;68.89;;
77134;Laerm;25175;50.140;18.990;2023-01-15T05:43:01;47.11;35.86;68.41;;
77134;Laerm;25175;50.140;18.990;2023-01-15T05:46:06;45.77;36.47;72.41;;
77134;Laerm;25175;50.140;18.990;2023-01-15T05:49:14;46.84;36.64;67.44;;
77134;Laerm;25175;50.140;18.990;2023-01-15T05:52:20;46.18;35.81;68.69;;
77134;Laerm;25175;50.140;18.990;2023-01-15T05:55:27;41.26;34.97;59.81;;
77134;Laerm;25175;50.140;18.990;2023-01-15T05:58:32;48.16;36.22;71.08;;
77134;Laerm;25175;50.140;18.990;2023-01-15T06:01:37;48.91;35.81;72.03;;
77134;Laerm;25175;50.140;18.990;2023-01-15T06:04:42;46.34;35.82;69.63;;
77134;Laerm;25175;50.140;18.990;2023-01-15T06:07:50;49.98;37.08;79.38;;
77134;Laerm;25175;50.140;18.990;2023-01-15T06:10:58;43.39;35.98;60.51;;
77134;Laerm;25175;50.140;18.990;2023-01-15T06:14:02;40.82;36.14;55.06;;
77134;Laerm;25175;50.140;18.990;2023-01-15T06:17:07;49.01;36.61;72.77;;
77134;Laerm;25175;50.140;18.990;2023-01-15T06:20:12;44.04;36.04;63.67;;
77134;Laerm;25175;50.140;18.990;2023-01-15T06:23:18;43.97;35.83;62.34;;
77134;Laerm;25175;50.140;18.990;2023-01-15T06:26:25;41.61;35.73;68.08;;
77134;Laerm;25175;50.140;18.990;2023-01-15T06:29:30;43.03;35.62;57.67;;
77134;Laerm;25175;50.140;18.990;2023-01-15T06:32:35;47.28;36.89;69.26;;
77134;Laerm;25175;50.140;18.990;2023-01-15T06:35:40;49.61;36.54;73.29;;
77134;Laerm;25175;50.140;18.990;2023-01-15T06:38:44;52.69;36.70;76.00;;
77134;Laerm;25175;50.140;18.990;2023-01-15T06:41:52;48.86;36.88;73.87;;
77134;Laerm;25175;50.140;18.990;2023-01-15T06:45:10;48.50;37.56;70.60;;
77134;Laerm;25175;50.140;18.990;2023-01-15T06:48:28;50.57;38.23;70.34;;
77134;Laerm;25175;50.140;18.990;2023-01-15T06:51:32;44.83;36.77;64.42;;
77134;Laerm;25175;50.140;18.990;2023-01-15T06:54:37;56.23;37.81;84.00;;
77134;Laerm;25175;50.140;18.990;2023-01-15T06:57:44;44.75;37.08;68.49;;
77134;Laerm;25175;50.140;18.990;2023-01-15T07:00:50;42.33;36.31;63.80;;
77134;Laerm;25175;50.140;18.990;2023-01-15T07:03:56;56.20;36.17;82.13;;
77134;Laerm;25175;50.140;18.990;2023-01-15T07:07:02;50.44;36.42;75.04;;
77134;Laerm;25175;50.140;18.990;2023-01-15T07:10:08;48.01;36.92;68.53;;
77134;Laerm;25175;50.140;18.990;2023-01-15T07:13:16;52.11;38.15;74.95;;
77134;Laerm;25175;50.140;18.990;2023-01-15T07:16:20;50.78;37.81;71.03;;
77134;Laerm;25175;50.140;18.990;2023-01-15T07:19:31;48.84;37.91;75.20;;
77134;Laerm;25175;50.140;18.990;2023-01-15T07:22:36;48.47;36.82;71.57;;
77134;Laerm;25175;50.140;18.990;2023-01-15T07:25:41;48.88;37.00;75.71;;
77134;Laerm;25175;50.140;18.990;2023-01-15T07:28:48;45.25;36.03;67.41;;
77134;Laerm;25175;50.140;18.990;2023-01-15T07:31:53;56.14;40.03;80.59;;
77134;Laerm;25175;50.140;18.990;2023-01-15T07:34:57;56.60;39.00;82.59;;
77134;Laerm;25175;50.140;18.990;2023-01-15T07:38:03;58.34;38.58;78.86;;
77134;Laerm;25175;50.140;18.990;2023-01-15T07:41:07;43.87;37.03;67.37;;
77134;Laerm;25175;50.140;18.990;2023-01-15T07:44:27;43.11;36.54;60.18;;
77134;Laerm;25175;50.140;18.990;2023-01-15T07:47:44;49.61;36.27;74.76;;
77134;Laerm;25175;50.140;18.990;2023-01-15T07:51:02;55.59;38.58;81.06;;
77134;Laerm;25175;50.140;18.990;2023-01-15T07:54:06;55.22;37.92;82.07;;
77134;Laerm;25175;50.140;18.990;2023-01-15T07:57:18;56.74;39.18;82.42;;
77134;Laerm;25175;50.140;18.990;2023-01-15T08:00:26;49.52;37.70;71.47;;
77134;Laerm;25175;50.140;18.990;2023-01-15T08:03:31;53.48;38.97;77.15;;
77134;Laerm;25175;50.140;18.990;2023-01-15T08:06:36;55.15;38.78;78.06;;
77134;Laerm;25175;50.140;18.990;2023-01-15T08:09:42;48.75;37.65;70.66;;
77134;Laerm;25175;50.140;18.990;2023-01-15T08:12:49;50.74;37.81;72.26;;
77134;Laerm;25175;50.140;18.990;2023-01-15T08:16:09;55.56;37.51;78.21;;
77134;Laerm;25175;50.140;18.990;2023-01-15T08:19:14;50.08;38.43;73.42;;
77134;Laerm;25175;50.140;18.990;2023-01-15T08:22:19;56.42;38.24;80.42;;
77134;Laerm;25175;50.140;18.990;2023-01-15T08:25:24;51.50;37.97;75.45;;
77134;Laerm;25175;50.140;18.990;2023-01-15T08:28:29;56.81;39.49;75.64;;
77134;Laerm;25175;50.140;18.990;2023-01-15T08:31:36;51.62;39.17;74.55;;
77134;Laerm;25175;50.140;18.990;2023-01-15T08:34:42;57.18;39.48;82.67;;
77134;Laerm;25175;50.140;18.990;2023-01-15T08:37:46;52.60;37.97;78.88;;
77134;Laerm;25175;50.140;18.990;2023-01-15T08:40:52;53.19;38.19;74.96;;
77134;Laerm;25175;50.140;18.990;2023-01-15T08:44:04;54.97;38.27;77.45;;
77134;Laerm;25175;50.140;18.990;2023-01-15T08:47:12;56.07;37.22;82.08;;
77134;Laerm;25175;50.140;18.990;2023-01-15T08:50:16;46.88;37.27;72.22;;
77134;Laerm;25175;50.140;18.990;2023-01-15T08:53:22;49.97;38.94;72.01;;
77134;Laerm;25175;50.140;18.990;2023-01-15T08:56:27;46.75;37.14;68.88;;
77134;Laerm;25175;50.140;18.990;2023-01-15T08:59:32;58.11;39.10;78.67;;
77134;Laerm;25175;50.140;18.990;2023-01-15T09:02:39;57.68;39.75;78.31;;
77134;Laerm;25175;50.140;18.990;2023-01-15T09:05:44;48.62;37.00;71.25;;
77134;Laerm;25175;50.140;18.990;2023-01-15T09:08:49;51.85;38.04;77.13;;
77134;Laerm;25175;50.140;18.990;2023-01-15T09:11:54;43.01;36.93;58.65;;
77134;Laerm;25175;50.140;18.990;2023-01-15T09:14:58;56.06;37.24;80.48;;
77134;Laerm;25175;50.140;18.990;2023-01-15T09:18:09;51.69;40.16;70.93;;
77134;Laerm;25175;50.140;18.990;2023-01-15T09:21:15;56.27;37.93;79.88;;
77134;Laerm;25175;50.140;18.990;2023-01-15T09:24:21;48.73;37.80;69.81;;
77134;Laerm;25175;50.140;18.990;2023-01-15T09:27:25;46.64;37.66;67.87;;
77134;Laerm;25175;50.140;18.990;2023-01-15T09:30:31;44.38;36.30;64.18;;
77134;Laerm;25175;50.140;18.990;2023-01-15T09:33:38;45.90;37.35;61.34;;
77134;Laerm;25175;50.140;18.990;2023-01-15T09:36:44;48.89;37.55;70.21;;
77134;Laerm;25175;50.140;18.990;2023-01-15T09:39:48;51.58;37.09;77.98;;
77134;Laerm;25175;50.140;18.990;2023-01-15T09:43:04;45.93;37.43;66.72;;
77134;Laerm;25175;50.140;18.990;2023-01-15T09:46:18;46.11;37.69;67.41;;
77134;Laerm;25175;50.140;18.990;2023-01-15T09:49:53;57.49;39.59;82.26;;
77134;Laerm;25175;50.140;18.990;2023-01-15T09:53:22;47.77;37.36;71.08;;
77134;Laerm;25175;50.140;18.990;2023-01-15T09:56:30;55.10;37.79;78.86;;
77134;Laerm;25175;50.140;18.990;2023-01-15T09:59:42;50.41;38.74;71.56;;
77134;Laerm;25175;50.140;18.990;2023-01-15T10:02:55;53.29;39.18;79.02;;
77134;Laerm;25175;50.140;18.990;2023-01-15T10:06:14;46.41;38.74;66.46;;
77134;Laerm;25175;50.140;18.990;2023-01-15T10:09:29;50.47;37.65;76.56;;
77134;Laerm;25175;50.140;18.990;2023-01-15T10:12:38;47.82;37.28;68.28;;
77134;Laerm;25175;50.140;18.990;2023-01-15T10:15:48;46.97;36.68;71.18;;
77134;Laerm;25175;50.140;18.990;2023-01-15T10:18:52;43.47;37.65;62.40;;
77134;Laerm;25175;50.140;18.990;2023-01-15T10:22:17;46.44;37.69;68.92;;
77134;Laerm;25175;50.140;18.990;2023-01-15T10:25:37;45.69;37.91;67.07;;
77134;Laerm;25175;50.140;18.990;2023-01-15T10:28:59;48.00;37.57;75.24;;
77134;Laerm;25175;50.140;18.990;2023-01-15T10:32:25;45.06;38.02;65.49;;
77134;Laerm;25175;50.140;18.990;2023-01-15T10:35:45;45.87;38.51;62.60;;
77134;Laerm;25175;50.140;18.990;2023-01-15T10:39:10;44.60;37.93;61.85;;
77134;Laerm;25175;50.140;18.990;2023-01-15T10:42:40;46.76;38.99;71.71;;
77134;Laerm;25175;50.140;18.990;2023-01-15T10:45:55;45.97;37.67;63.30;;
77134;Laerm;25175;50.140;18.990;2023-01-15T10:49:11;47.15;38.55;70.12;;
77134;Laerm;25175;50.140;18.990;2023-01-15T10:52:28;48.15;38.41;69.20;;
77134;Laerm;25175;50.140;18.990;2023-01-15T10:55:44;47.83;38.65;61.42;;
77134;Laerm;25175;50.140;18.990;2023-01-15T10:59:02;46.49;39.78;65.03;;
77134;Laerm;25175;50.140;18.990;2023-01-15T11:02:28;45.78;39.19;62.31;;
77134;Laerm;25175;50.140;18.990;2023-01-15T11:05:35;46.21;39.30;62.41;;
77134;Laerm;25175;50.140;18.990;2023-01-15T11:08:45;46.70;39.09;68.92;;
77134;Laerm;25175;50.140;18.990;2023-01-15T11:12:18;45.16;38.42;65.43;;
77134;Laerm;25175;50.140;18.990;2023-01-15T11:15:37;49.11;38.91;66.73;;
77134;Laerm;25175;50.140;18.990;2023-01-15T11:19:28;44.27;38.01;62.89;;
77134;Laerm;25175;50.140;18.990;2023-01-15T11:22:44;43.13;36.97;62.72;;
77134;Laerm;25175;50.140;18.990;2023-01-15T11:25:52;47.17;37.67;65.41;;
77134;Laerm;25175;50.140;18.990;2023-01-15T11:29:13;44.11;37.72;63.05;;
77134;Laerm;25175;50.140;18.990;2023-01-15T11:32:27;46.14;38.17;62.69;;
77134;Laerm;25175;50.140;18.990;2023-01-15T11:35:34;47.71;38.21;70.70;;
77134;Laerm;25175;50.140;18.990;2023-01-15T11:38:44;45.67;37.94;65.53;;
77134;Laerm;25175;50.140;18.990;2023-01-15T11:41:58;47.96;38.18;70.00;;
77134;Laerm;25175;50.140;18.990;2023-01-15T11:45:21;51.17;38.45;81.57;;
77134;Laerm;25175;50.140;18.990;2023-01-15T11:48:47;47.37;37.80;74.00;;
77134;Laerm;25175;50.140;18.990;2023-01-15T11:52:10;46.35;38.14;68.02;;
77134;Laerm;25175;50.140;18.990;2023-01-15T11:55:21;43.94;37.08;55.32;;
77134;Laerm;25175;50.140;18.990;2023-01-15T11:58:33;44.16;37.38;59.83;;
77134;Laerm;25175;50.140;18.990;2023-01-15T12:01:53;46.67;37.83;57.69;;
77134;Laerm;25175;50.140;18.990;2023-01-15T12:05:03;47.03;37.55;58.53;;
77134;Laerm;25175;50.140;18.990;2023-01-15T12:08:31;45.18;37.63;61.86;;
77134;Laerm;25175;50.140;18.990;2023-01-15T12:12:03;44.70;37.37;67.53;;
77134;Laerm;25175;50.140;18.990;2023-01-15T12:15:30;46.26;37.52;65.99;;
77134;Laerm;25175;50.140;18.990;2023-01-15T12:18:57;48.63;38.14;69.35;;
77134;Laerm;25175;50.140;18.990;2023-01-15T12:22:28;44.55;37.68;67.33;;
77134;Laerm;25175;50.140;18.990;2023-01-15T12:25:55;48.20;37.33;72.10;;
77134;Laerm;25175;50.140;18.990;2023-01-15T12:29:19;47.94;38.10;67.98;;
77134;Laerm;25175;50.140;18.990;2023-01-15T12:32:36;44.23;37.06;67.79;;
77134;Laerm;25175;50.140;18.990;2023-01-15T12:35:56;44.11;36.64;63.27;;
77134;Laerm;25175;50.140;18.990;2023-01-15T12:39:13;45.91;36.80;65.29;;
77134;Laerm;25175;50.140;18.990;2023-01-15T12:42:23;42.88;36.90;57.10;;
77134;Laerm;25175;50.140;18.990;2023-01-15T12:45:48;44.20;36.94;63.95;;
77134;Laerm;25175;50.140;18.990;2023-01-15T12:49:03;46.08;37.85;67.95;;
77134;Laerm;25175;50.140;18.990;2023-01-15T12:52:20;48.18;38.27;62.80;;
77134;Laerm;25175;50.140;18.990;2023-01-15T12:55:33;45.50;37.45;57.05;;
77134;Laerm;25175;50.140;18.990;2023-01-15T12:58:46;46.62;38.61;69.60;;
77134;Laerm;25175;50.140;18.990;2023-01-15T13:02:12;45.15;37.30;65.72;;
77134;Laerm;25175;50.140;18.990;2023-01-15T13:05:24;51.24;37.94;74.64;;
77134;Laerm;25175;50.140;18.990;2023-01-15T13:08:40;43.16;37.26;64.26;;
77134;Laerm;25175;50.140;18.990;2023-01-15T13:11:47;44.54;37.58;64.05;;
77134;Laerm;25175;50.140;18.990;2023-01-15T13:14:52;48.19;36.77;64.18;;
77134;Laerm;25175;50.140;18.990;2023-01-15T13:18:11;44.40;37.30;67.78;;
77134;Laerm;25175;50.140;18.990;2023-01-15T13:21:22;47.43;36.68;67.23;;
77134;Laerm;25175;50.140;18.990;2023-01-15T13:25:10;47.08;37.34;70.95;;
77134;Laerm;25175;50.140;18.990;2023-01-15T13:28:43;51.02;36.63;75.52;;
77134;Laerm;25175;50.140;18.990;2023-01-15T13:32:00;48.71;37.73;64.78;;
77134;Laerm;25175;50.140;18.990;2023-01-15T13:35:19;44.25;37.65;64.07;;
77134;Laerm;25175;50.140;18.990;2023-01-15T13:38:35;45.90;37.36;65.13;;
77134;Laerm;25175;50.140;18.990;2023-01-15T13:41:51;45.96;38.57;65.57;;
77134;Laerm;25175;50.140;18.990;2023-01-15T13:45:31;49.14;37.28;72.74;;
77134;Laerm;25175;50.140;18.990;2023-01-15T13:48:44;51.56;38.39;74.92;;
77134;Laerm;25175;50.140;18.990;2023-01-15T13:51:50;46.26;36.95;62.10;;
77134;Laerm;25175;50.140;18.990;2023-01-15T13:55:09;45.94;37.05;60.16;;
77134;Laerm;25175;50.140;18.990;2023-01-15T13:58:24;45.87;36.54;63.61;;
77134;Laerm;25175;50.140;18.990;2023-01-15T14:01:34;45.70;37.49;58.96;;
77134;Laerm;25175;50.140;18.990;2023-01-15T14:04:39;46.68;38.38;67.38;;
77134;Laerm;25175;50.140;18.990;2023-01-15T14:07:44;43.92;38.14;62.40;;
77134;Laerm;25175;50.140;18.990;2023-01-15T14:10:50;45.32;37.21;57.48;;
77134;Laerm;25175;50.140;18.990;2023-01-15T14:18:30;43.06;36.74;58.45;;
77134;Laerm;25175;50.140;18.990;2023-01-15T14:21:51;43.49;36.12;56.33;;
77134;Laerm;25175;50.140;18.990;2023-01-15T14:25:30;45.85;37.08;62.84;;
77134;Laerm;25175;50.140;18.990;2023-01-15T14:29:04;46.65;37.14;59.25;;
77134;Laerm;25175;50.140;18.990;2023-01-15T14:32:40;46.05;38.38;61.74;;
77134;Laerm;25175;50.140;18.990;2023-01-15T14:35:51;48.30;40.89;62.19;;
77134;Laerm;25175;50.140;18.990;2023-01-15T14:39:02;46.92;37.77;62.68;;
77134;Laerm;25175;50.140;18.990;2023-01-15T14:42:14;43.99;37.02;60.68;;
77134;Laerm;25175;50.140;18.990;2023-01-15T14:45:39;43.97;36.41;61.05;;
77134;Laerm;25175;50.140;18.990;2023-01-15T14:48:46;45.09;37.26;60.98;;
77134;Laerm;25175;50.140;18.990;2023-01-15T14:51:51;48.05;36.64;68.45;;
77134;Laerm;25175;50.140;18.990;2023-01-15T14:54:59;50.05;38.43;69.51;;
77134;Laerm;25175;50.140;18.990;2023-01-15T14:58:12;47.87;36.70;62.56;;
77134;Laerm;25175;50.140;18.990;2023-01-15T15:01:42;45.74;37.81;66.13;;
77134;Laerm;25175;50.140;18.990;2023-01-15T15:04:52;45.66;38.26;62.41;;
77134;Laerm;25175;50.140;18.990;2023-01-15T15:07:58;47.56;37.17;67.32;;
77134;Laerm;25175;50.140;18.990;2023-01-15T15:11:05;46.68;37.26;67.54;;
77134;Laerm;25175;50.140;18.990;2023-01-15T15:14:39;47.71;37.65;74.59;;
77134;Laerm;25175;50.140;18.990;2023-01-15T15:18:01;50.14;38.68;74.34;;
77134;Laerm;25175;50.140;18.990;2023-01-15T15:21:16;47.16;38.57;67.73;;
77134;Laerm;25175;50.140;18.990;2023-01-15T15:24:30;46.44;38.36;63.26;;
77134;Laerm;25175;50.140;18.990;2023-01-15T15:27:36;51.31;38.42;72.61;;
77134;Laerm;25175;50.140;18.990;2023-01-15T15:30:45;47.93;37.71;71.25;;
77134;Laerm;25175;50.140;18.990;2023-01-15T15:33:55;46.37;37.14;67.72;;
77134;Laerm;25175;50.140;18.990;2023-01-15T15:37:16;45.08;37.78;64.34;;
77134;Laerm;25175;50.140;18.990;2023-01-15T15:40:31;48.24;36.99;70.28;;
77134;Laerm;25175;50.140;18.990;2023-01-15T15:43:49;46.49;37.18;69.81;;
77134;Laerm;25175;50.140;18.990;2023-01-15T15:47:19;43.21;36.79;59.65;;
77134;Laerm;25175;50.140;18.990;2023-01-15T15:50:39;45.19;38.16;58.10;;
77134;Laerm;25175;50.140;18.990;2023-01-15T15:53:44;44.54;38.29;66.30;;
77134;Laerm;25175;50.140;18.990;2023-01-15T15:56:57;46.15;38.12;63.67;;
77134;Laerm;25175;50.140;18.990;2023-01-15T16:00:18;46.92;38.35;60.68;;
77134;Laerm;25175;50.140;18.990;2023-01-15T16:03:26;46.20;39.54;65.07;;
77134;Laerm;25175;50.140;18.990;2023-01-15T16:06:35;46.05;38.83;64.84;;
77134;Laerm;25175;50.140;18.990;2023-01-15T16:09:49;44.48;39.13;57.07;;
77134;Laerm;25175;50.140;18.990;2023-01-15T16:13:01;46.08;36.38;60.71;;
77134;Laerm;25175;50.140;18.990;2023-01-15T16:16:09;44.70;37.50;59.35;;
77134;Laerm;25175;50.140;18.990;2023-01-15T16:19:22;46.41;38.62;60.05;;
77134;Laerm;25175;50.140;18.990;2023-01-15T16:22:31;47.13;38.30;68.56;;
77134;Laerm;25175;50.140;18.990;2023-01-15T16:25:41;47.89;38.67;66.21;;
77134;Laerm;25175;50.140;18.990;2023-01-15T16:28:52;48.27;38.54;69.03;;
77134;Laerm;25175;50.140;18.990;2023-01-15T16:32:01;47.13;37.33;68.73;;
77134;Laerm;25175;50.140;18.990;2023-01-15T16:35:19;44.37;37.02;64.60;;
77134;Laerm;25175;50.140;18.990;2023-01-15T16:38:28;46.22;38.22;58.44;;
77134;Laerm;25175;50.140;18.990;2023-01-15T16:41:39;44.90;38.78;57.73;;
77134;Laerm;25175;50.140;18.990;2023-01-15T16:44:53;46.04;39.99;58.01;;
77134;Laerm;25175;50.140;18.990;2023-01-15T16:48:23;46.51;40.62;58.32;;
77134;Laerm;25175;50.140;18.990;2023-01-15T16:51:33;44.88;38.53;59.10;;
77134;Laerm;25175;50.140;18.990;2023-01-15T16:54:45;46.07;39.09;59.88;;
77134;Laerm;25175;50.140;18.990;2023-01-15T16:58:17;47.59;39.85;68.29;;
77134;Laerm;25175;50.140;18.990;2023-01-15T17:01:32;46.84;40.97;59.02;;
77134;Laerm;25175;50.140;18.990;2023-01-15T17:04:43;49.09;41.13;57.95;;
77134;Laerm;25175;50.140;18.990;2023-01-15T17:07:53;47.00;42.01;56.72;;
77134;Laerm;25175;50.140;18.990;2023-01-15T17:11:03;49.34;42.62;60.90;;
77134;Laerm;25175;50.140;18.990;2023-01-15T17:14:20;46.58;40.85;62.59;;
77134;Laerm;25175;50.140;18.990;2023-01-15T17:17:28;48.49;42.53;64.43;;
77134;Laerm;25175;50.140;18.990;2023-01-15T17:20:32;50.52;44.29;61.52;;
77134;Laerm;25175;50.140;18.990;2023-01-15T17:23:40;50.06;42.68;67.49;;
77134;Laerm;25175;50.140;18.990;2023-01-15T17:26:47;47.51;42.54;65.10;;
77134;Laerm;25175;50.140;18.990;2023-01-15T17:29:53;47.88;42.43;61.85;;
77134;Laerm;25175;50.140;18.990;2023-01-15T17:32:59;47.09;42.39;63.14;;
77134;Laerm;25175;50.140;18.990;2023-01-15T17:36:05;47.86;41.30;59.15;;
77134;Laerm;25175;50.140;18.990;2023-01-15T17:39:10;45.35;40.24;59.20;;
77134;Laerm;25175;50.140;18.990;2023-01-15T17:42:19;46.21;40.29;62.25;;